College Dale, Tennessee
Current Conditions -  °F | °C
As of 12:53 PM on Thursday 29 Jan 2015 (Local Time) from KCHA Reporting Station
Scattered Clouds Scattered Clouds  
Wind Chill: 53°   Ceiling: Unl
Heat Index: 53°   Visibility: 10mi
Dew Point: 33°   Wind: 10mph
Humidity: 47%   Direction: 190°S
Pressure: 30.14"   Gusts: 22mph
Location:  35.1121°N, 85.0602°W
Report Text: KCHA 291753Z 19009G19KT 10SM SCT095 SCT110 SCT250 12/01 A3014 RMK AO2 PRESFR SLP206 60000 T01170006 10117 21006 58033
Loading
Personal Weather Stations






























Interactive Weather Map New forecast layout! Learn more

10-Day Weather Forecast

Advertisements
Track Severe Weather on mobile